Time;durP1;ratioP1;P1;durP2;ratioP2;P2;SDS_P1;SDS_P2;PMS_P1;PMS_P2;Temp;Humidity;BMP_temperature;BMP_pressure;BME280_temperature;BME280_humidity;BME280_pressure;Samples;Min_cycle;Max_cycle;Signal;HPM_P1;HPM_P2
2024/02/11 00:01:01;;;;;;;19.77;9.45;;;;;;;4.32;63.33;99038.09;5027526;28;20067;-69
2024/02/11 00:03:27;;;;;;;14.65;9.20;;;;;;;4.63;62.41;99034.13;5049504;28;20131;-71
2024/02/11 00:05:57;;;;;;;18.40;8.52;;;;;;;4.43;62.60;99027.25;5054225;28;20130;-71
2024/02/11 00:08:23;;;;;;;17.52;8.05;;;;;;;4.56;62.24;99022.38;5048494;28;20040;-70
2024/02/11 00:10:51;;;;;;;14.07;7.72;;;;;;;4.57;62.07;99021.50;5038937;28;20081;-70
2024/02/11 00:13:17;;;;;;;20.73;9.40;;;;;;;4.52;62.72;99024.28;5022576;28;20039;-71
2024/02/11 00:15:43;;;;;;;12.50;6.80;;;;;;;4.62;62.15;99022.97;5014018;28;20126;-71
2024/02/11 00:18:11;;;;;;;20.38;8.95;;;;;;;4.66;61.88;99028.84;5020818;28;20028;-70
2024/02/11 00:20:39;;;;;;;15.77;8.05;;;;;;;4.78;61.75;99012.75;4985831;28;20035;-70
2024/02/11 00:23:05;;;;;;;24.42;10.68;;;;;;;4.72;61.25;99018.22;5007092;28;20190;-72
2024/02/11 00:25:34;;;;;;;20.52;9.95;;;;;;;4.71;61.48;99021.72;5019408;28;20438;-70
2024/02/11 00:28:01;;;;;;;23.60;11.52;;;;;;;4.41;61.66;99024.75;5009826;28;20032;-71
2024/02/11 00:30:30;;;;;;;22.63;9.82;;;;;;;4.21;62.05;99024.78;5034160;28;20032;-70
2024/02/11 00:32:56;;;;;;;23.00;10.98;;;;;;;4.14;62.42;99020.78;5016261;28;20459;-70
2024/02/11 00:35:27;;;;;;;22.83;11.05;;;;;;;4.23;61.82;99015.22;5025358;28;20028;-71
2024/02/11 00:37:52;;;;;;;23.05;10.10;;;;;;;4.10;62.14;99024.41;5055688;28;20048;-72
2024/02/11 00:40:19;;;;;;;24.45;9.77;;;;;;;4.02;62.28;99028.16;5051906;28;20039;-72
2024/02/11 00:42:45;;;;;;;23.80;10.88;;;;;;;4.07;62.03;99027.94;5048012;28;20866;-72
2024/02/11 00:45:12;;;;;;;23.63;10.50;;;;;;;4.01;62.13;99023.88;5030616;28;20514;-72
2024/02/11 00:47:41;;;;;;;24.73;8.60;;;;;;;3.99;62.13;99028.28;5018815;28;20052;-73
2024/02/11 00:50:13;;;;;;;20.03;8.97;;;;;;;4.06;61.80;99012.53;5013462;28;20868;-72
2024/02/11 00:52:44;;;;;;;28.40;11.35;;;;;;;4.11;62.17;99020.91;5031773;28;20451;-74
2024/02/11 00:55:21;;;;;;;25.37;9.37;;;;;;;4.24;61.54;99016.06;5050750;28;20081;-73
2024/02/11 00:57:47;;;;;;;23.83;10.45;;;;;;;4.13;62.01;99016.53;5033299;28;20404;-74
2024/02/11 01:00:15;;;;;;;25.50;10.98;;;;;;;3.80;62.60;99012.69;5037289;28;20116;-72
2024/02/11 01:02:41;;;;;;;28.13;13.90;;;;;;;3.78;62.47;99008.50;4996357;28;20049;-73
2024/02/11 01:05:07;;;;;;;28.40;12.75;;;;;;;4.04;61.83;99004.81;5050133;28;20387;-73
2024/02/11 01:07:33;;;;;;;24.67;12.15;;;;;;;3.95;61.98;98995.72;5050528;28;20043;-73
2024/02/11 01:09:58;;;;;;;35.00;12.23;;;;;;;3.89;62.34;98998.53;5040861;28;20043;-74
2024/02/11 01:12:24;;;;;;;29.20;13.35;;;;;;;3.94;61.94;98994.03;5038688;28;20051;-72
2024/02/11 01:14:50;;;;;;;28.10;11.43;;;;;;;3.79;62.28;98995.53;4984465;28;20471;-73
2024/02/11 01:17:19;;;;;;;26.05;11.30;;;;;;;3.93;62.06;98994.94;5033727;28;20044;-73
2024/02/11 01:19:48;;;;;;;21.65;11.55;;;;;;;4.06;61.93;98984.09;5051969;28;20114;-74
2024/02/11 01:22:14;;;;;;;28.38;12.82;;;;;;;3.93;61.83;98992.34;5055772;28;20120;-73
2024/02/11 01:24:39;;;;;;;26.95;12.95;;;;;;;3.59;62.52;98992.94;5031863;28;20552;-73
2024/02/11 01:27:05;;;;;;;31.55;13.23;;;;;;;3.90;61.79;98997.66;5015159;28;20036;-73
2024/02/11 01:29:30;;;;;;;26.65;12.70;;;;;;;3.96;61.51;98997.41;5036338;28;20632;-64
2024/02/11 01:31:58;;;;;;;32.25;12.15;;;;;;;4.00;61.68;99001.50;5056999;28;20044;-71
2024/02/11 01:34:23;;;;;;;31.75;13.05;;;;;;;3.87;61.55;99002.09;5035085;28;20483;-64
2024/02/11 01:36:49;;;;;;;38.05;12.45;;;;;;;3.68;62.20;99004.63;5033497;28;20535;-68
2024/02/11 01:39:15;;;;;;;28.00;12.25;;;;;;;3.53;62.59;99003.50;5019463;28;20077;-68
2024/02/11 01:41:41;;;;;;;32.95;12.25;;;;;;;3.66;62.54;99003.84;5049361;28;20032;-68
2024/02/11 01:44:06;;;;;;;31.20;11.93;;;;;;;3.79;62.22;98999.84;5058586;28;20059;-69
2024/02/11 01:46:34;;;;;;;27.15;11.82;;;;;;;3.94;61.67;98991.47;5046453;28;20117;-68
2024/02/11 01:49:04;;;;;;;34.85;13.88;;;;;;;3.80;62.18;98991.19;5040381;28;20059;-69
2024/02/11 01:51:32;;;;;;;30.05;12.88;;;;;;;3.32;63.63;99000.88;5034142;28;20153;-69
2024/02/11 01:53:59;;;;;;;33.03;11.93;;;;;;;3.45;63.48;99001.25;5035859;28;20101;-68
2024/02/11 01:56:25;;;;;;;27.30;11.95;;;;;;;3.72;62.42;99006.19;5050429;28;20670;-69
2024/02/11 01:58:50;;;;;;;26.83;12.15;;;;;;;3.36;63.48;98993.88;5026598;28;20230;-69
2024/02/11 02:01:20;;;;;;;38.47;11.68;;;;;;;3.67;62.53;99001.22;5026890;28;20105;-69
2024/02/11 02:03:47;;;;;;;33.08;13.80;;;;;;;3.64;62.32;98992.75;4995214;28;20029;-69
2024/02/11 02:06:15;;;;;;;31.33;13.45;;;;;;;3.28;63.46;98988.97;5013409;28;20902;-69
2024/02/11 02:08:41;;;;;;;31.48;12.20;;;;;;;3.29;63.32;98985.53;4996993;28;20028;-68
2024/02/11 02:11:09;;;;;;;34.65;12.90;;;;;;;3.36;63.57;98984.38;5004869;28;20046;-68
2024/02/11 02:13:36;;;;;;;31.55;11.90;;;;;;;3.55;62.46;98987.03;5008819;28;20123;-69
2024/02/11 02:16:02;;;;;;;32.20;12.93;;;;;;;3.41;62.72;98979.03;5041637;28;20040;-68
2024/02/11 02:18:34;;;;;;;35.60;13.82;;;;;;;3.02;63.93;98991.72;5007339;28;20043;-69
2024/02/11 02:21:06;;;;;;;34.20;15.02;;;;;;;3.23;63.51;98992.66;5020096;28;20048;-69
2024/02/11 02:23:32;;;;;;;34.67;13.68;;;;;;;3.19;63.75;98985.00;5029834;28;20032;-69
2024/02/11 02:26:07;;;;;;;35.72;13.85;;;;;;;3.56;62.80;98987.88;5034645;28;20043;-68
2024/02/11 02:28:33;;;;;;;37.28;13.32;;;;;;;3.66;62.25;98990.94;5053178;28;20674;-70
2024/02/11 02:30:59;;;;;;;35.05;12.45;;;;;;;3.37;62.82;98990.38;5036005;28;20047;-69
2024/02/11 02:33:25;;;;;;;32.97;13.23;;;;;;;3.41;62.83;99002.25;5055091;28;20024;-69
2024/02/11 02:35:51;;;;;;;34.83;13.25;;;;;;;3.31;63.52;98993.19;5049338;28;20149;-68
2024/02/11 02:38:17;;;;;;;37.78;13.48;;;;;;;3.31;63.38;99003.53;5036724;28;20043;-71
2024/02/11 02:40:42;;;;;;;41.80;14.05;;;;;;;3.29;63.18;98998.44;5050275;28;20032;-67
2024/02/11 02:43:11;;;;;;;37.88;14.05;;;;;;;3.30;63.19;99000.09;5041039;28;20047;-69
2024/02/11 02:45:38;;;;;;;35.15;14.40;;;;;;;3.66;62.32;99002.09;5047952;28;20028;-68
2024/02/11 02:48:06;;;;;;;42.10;14.60;;;;;;;3.73;61.89;98989.78;5037162;28;20028;-67
2024/02/11 02:50:31;;;;;;;33.92;14.45;;;;;;;3.64;62.45;98993.56;5024606;28;20471;-68
2024/02/11 02:52:57;;;;;;;36.30;14.18;;;;;;;3.46;62.63;99000.34;5048035;28;20382;-66
2024/02/11 02:55:22;;;;;;;41.88;14.52;;;;;;;3.47;63.20;98998.59;5052020;28;20039;-66
2024/02/11 02:57:48;;;;;;;38.50;14.00;;;;;;;3.50;62.87;98996.72;5025767;28;20040;-66
2024/02/11 03:00:17;;;;;;;39.72;13.75;;;;;;;3.62;62.75;98986.78;5034358;28;20512;-65
2024/02/11 03:02:43;;;;;;;32.83;14.55;;;;;;;3.63;62.53;98989.31;5010206;28;20701;-66
2024/02/11 03:05:08;;;;;;;35.42;13.30;;;;;;;3.54;62.70;98987.13;5002381;28;20047;-66
2024/02/11 03:07:39;;;;;;;37.35;14.38;;;;;;;3.43;63.41;98981.56;5013713;28;20068;-67
2024/02/11 03:10:05;;;;;;;34.78;14.23;;;;;;;3.59;62.93;98983.44;5001745;28;20159;-68
2024/02/11 03:12:32;;;;;;;35.17;14.57;;;;;;;3.63;62.69;98980.72;5025702;28;20050;-68
2024/02/11 03:14:58;;;;;;;39.95;15.15;;;;;;;3.75;62.31;98972.47;5049617;28;20052;-68
2024/02/11 03:17:23;;;;;;;37.10;15.27;;;;;;;3.41;63.14;98976.44;5050838;28;20041;-68
2024/02/11 03:19:49;;;;;;;37.63;14.05;;;;;;;3.60;62.81;98971.34;5051828;28;20101;-68
2024/02/11 03:22:14;;;;;;;35.03;14.50;;;;;;;3.59;63.08;98962.75;5032482;28;20043;-69
2024/02/11 03:24:40;;;;;;;39.47;16.30;;;;;;;3.70;62.67;98962.31;5028551;28;20029;-69
2024/02/11 03:27:07;;;;;;;37.58;13.93;;;;;;;3.50;62.80;98965.72;5050776;28;20036;-71
2024/02/11 03:29:33;;;;;;;44.47;13.23;;;;;;;3.82;62.07;98953.19;5028841;28;20051;-70
2024/02/11 03:31:59;;;;;;;37.65;15.25;;;;;;;3.68;62.54;98961.53;5060878;28;21105;-70
2024/02/11 03:34:28;;;;;;;38.08;15.23;;;;;;;3.62;62.58;98959.22;5072257;28;20032;-71
2024/02/11 03:36:53;;;;;;;41.58;15.48;;;;;;;3.47;62.79;98949.50;5020163;28;20036;-70
2024/02/11 03:39:20;;;;;;;37.17;14.55;;;;;;;3.52;62.77;98951.00;5003164;28;20035;-70
2024/02/11 03:41:46;;;;;;;33.83;14.98;;;;;;;3.74;62.01;98950.94;5014450;28;20059;-70
2024/02/11 03:44:12;;;;;;;36.78;14.18;;;;;;;3.72;62.17;98944.19;5053732;28;20032;-70
2024/02/11 03:46:37;;;;;;;33.67;13.55;;;;;;;3.64;62.49;98939.31;4997188;28;21994;-70
2024/02/11 03:49:02;;;;;;;34.30;13.85;;;;;;;3.63;62.26;98942.81;5024963;28;22005;-70
2024/02/11 03:51:29;;;;;;;34.67;14.82;;;;;;;3.41;62.98;98936.88;5023309;28;20050;-70
2024/02/11 03:53:56;;;;;;;43.33;14.05;;;;;;;3.64;62.30;98943.66;5047490;28;20055;-70
2024/02/11 03:56:28;;;;;;;40.55;14.45;;;;;;;3.72;62.05;98941.59;5030690;28;20050;-70
2024/02/11 03:58:55;;;;;;;34.42;13.68;;;;;;;3.80;61.41;98944.66;5012868;28;20655;-70
2024/02/11 04:01:21;;;;;;;35.70;15.48;;;;;;;3.76;61.66;98943.97;5023764;28;20097;-69
2024/02/11 04:03:47;;;;;;;33.00;13.02;;;;;;;3.62;62.41;98943.69;5013180;28;20094;-70
2024/02/11 04:06:14;;;;;;;32.58;12.00;;;;;;;3.70;61.92;98933.91;5033314;28;20040;-70
2024/02/11 04:08:42;;;;;;;38.67;13.82;;;;;;;3.78;61.80;98936.13;5027776;28;20270;-70
2024/02/11 04:11:09;;;;;;;37.10;13.80;;;;;;;3.57;62.17;98933.56;5002490;28;22010;-68
2024/02/11 04:13:36;;;;;;;33.25;13.50;;;;;;;3.47;62.63;98936.59;5020385;28;20038;-69
2024/02/11 04:16:11;;;;;;;40.65;14.32;;;;;;;3.32;63.12;98927.75;5036713;28;20098;-70
2024/02/11 04:18:38;;;;;;;34.85;14.70;;;;;;;3.65;61.95;98929.81;5014502;28;20035;-69
2024/02/11 04:21:06;;;;;;;36.85;15.45;;;;;;;3.41;62.46;98942.88;5045199;28;20074;-68
2024/02/11 04:23:32;;;;;;;44.60;15.63;;;;;;;3.14;63.45;98937.88;5020659;28;20648;-70
2024/02/11 04:26:07;;;;;;;37.92;14.55;;;;;;;3.07;63.90;98944.19;4992449;28;20048;-69
2024/02/11 04:28:35;;;;;;;35.53;14.48;;;;;;;3.07;63.63;98946.78;5031223;28;20430;-70
2024/02/11 04:31:04;;;;;;;39.70;14.40;;;;;;;3.14;63.57;98935.31;5048051;28;20631;-66
2024/02/11 04:33:30;;;;;;;34.83;14.00;;;;;;;3.34;63.02;98942.28;5051776;28;20038;-68
2024/02/11 04:35:56;;;;;;;47.28;14.75;;;;;;;3.22;63.24;98944.47;5029109;28;20059;-68
2024/02/11 04:38:27;;;;;;;38.58;14.35;;;;;;;2.81;64.75;98954.72;5033586;28;20032;-70
2024/02/11 04:40:53;;;;;;;37.88;14.48;;;;;;;2.98;64.15;98965.22;5034414;28;20036;-70
2024/02/11 04:43:19;;;;;;;39.10;14.00;;;;;;;3.05;63.98;98958.06;5057276;28;20040;-67
2024/02/11 04:45:44;;;;;;;47.47;15.18;;;;;;;3.04;63.93;98948.63;5020814;28;20044;-64
2024/02/11 04:48:11;;;;;;;56.65;14.40;;;;;;;3.38;62.78;98958.47;4983519;28;20098;-65
2024/02/11 04:50:37;;;;;;;36.60;13.90;;;;;;;3.17;63.65;98945.50;5023519;28;20039;-64
2024/02/11 04:53:03;;;;;;;45.47;15.85;;;;;;;3.25;63.38;98941.75;5031694;28;20405;-64
2024/02/11 04:55:40;;;;;;;40.95;15.32;;;;;;;3.21;63.28;98947.97;5050721;28;20659;-63
2024/02/11 04:58:13;;;;;;;44.13;14.75;;;;;;;3.11;63.74;98940.59;5020264;28;20093;-65
2024/02/11 05:00:40;;;;;;;30.80;13.88;;;;;;;2.99;64.34;98941.06;4990540;28;20038;-63
2024/02/11 05:03:06;;;;;;;43.53;14.77;;;;;;;3.33;63.05;98937.16;4997336;28;20487;-63
2024/02/11 05:05:33;;;;;;;41.65;13.20;;;;;;;3.15;63.23;98936.97;5051049;28;20055;-65
2024/02/11 05:08:07;;;;;;;43.28;15.82;;;;;;;3.26;63.40;98933.97;5048118;28;20038;-65
2024/02/11 05:10:37;;;;;;;41.92;14.18;;;;;;;3.36;63.09;98930.16;5048566;28;20047;-64
2024/02/11 05:13:04;;;;;;;43.58;13.93;;;;;;;3.31;62.88;98931.22;5027890;28;20027;-67
2024/02/11 05:15:36;;;;;;;38.35;13.23;;;;;;;3.48;62.59;98922.78;5030181;28;20115;-67
2024/02/11 05:18:02;;;;;;;42.60;14.85;;;;;;;3.11;63.71;98930.28;5017422;28;20579;-67
2024/02/11 05:20:28;;;;;;;39.60;14.68;;;;;;;3.44;63.01;98924.66;5031755;28;20089;-66
2024/02/11 05:22:56;;;;;;;45.45;15.15;;;;;;;3.29;63.23;98917.53;5023924;28;20098;-67
2024/02/11 05:25:22;;;;;;;48.58;14.15;;;;;;;3.24;63.27;98914.28;5051702;28;20035;-65
2024/02/11 05:27:58;;;;;;;44.65;14.68;;;;;;;3.24;63.05;98911.69;5048549;28;20044;-65
2024/02/11 05:30:29;;;;;;;37.80;16.60;;;;;;;3.07;63.76;98905.50;5032714;28;20052;-66
2024/02/11 05:33:00;;;;;;;40.67;15.40;;;;;;;2.94;64.07;98899.13;5039040;28;20123;-72
2024/02/11 05:35:30;;;;;;;34.20;13.88;;;;;;;3.18;63.31;98899.91;5016445;28;20513;-71
2024/02/11 05:37:59;;;;;;;41.60;16.10;;;;;;;3.21;62.98;98894.59;5043106;28;20062;-71
2024/02/11 05:40:28;;;;;;;39.15;13.70;;;;;;;3.14;63.54;98894.00;5040543;28;20093;-72
2024/02/11 05:42:55;;;;;;;42.88;15.00;;;;;;;3.17;63.25;98909.34;5043125;28;20043;-72
2024/02/11 05:45:24;;;;;;;51.72;16.38;;;;;;;3.17;63.06;98916.28;5031713;28;20367;-73
2024/02/11 05:47:51;;;;;;;36.42;13.75;;;;;;;3.14;63.26;98913.81;5050919;28;20044;-72
2024/02/11 05:50:17;;;;;;;42.88;13.25;;;;;;;3.10;63.07;98915.69;5035324;28;20032;-72
2024/02/11 05:52:46;;;;;;;44.65;14.02;;;;;;;3.07;63.20;98910.66;5036381;28;20264;-73
2024/02/11 05:55:16;;;;;;;54.38;15.68;;;;;;;3.18;62.92;98913.63;5036804;28;20060;-73
2024/02/11 05:57:43;;;;;;;40.72;16.48;;;;;;;2.90;64.05;98905.31;5030800;28;20044;-71
2024/02/11 06:00:14;;;;;;;34.83;13.18;;;;;;;3.22;63.11;98921.25;5019287;28;20052;-72
2024/02/11 06:02:47;;;;;;;39.67;14.90;;;;;;;3.12;63.40;98924.19;5033804;28;20039;-74
2024/02/11 06:05:13;;;;;;;38.03;14.25;;;;;;;3.17;63.29;98916.28;5028039;28;20032;-74
2024/02/11 06:07:39;;;;;;;43.30;15.57;;;;;;;3.19;63.17;98924.78;5050268;28;20067;-73
2024/02/11 06:10:05;;;;;;;39.28;14.70;;;;;;;3.01;63.38;98926.38;5030622;28;20127;-72
2024/02/11 06:12:32;;;;;;;37.55;13.65;;;;;;;2.95;63.57;98926.59;5017432;28;20040;-75
2024/02/11 06:14:58;;;;;;;48.10;15.82;;;;;;;2.70;64.43;98947.38;5003215;28;20177;-77
2024/02/11 06:17:25;;;;;;;34.50;12.93;;;;;;;2.52;65.14;98934.25;5028966;28;22235;-67
2024/02/11 06:19:53;;;;;;;40.70;16.65;;;;;;;2.66;65.00;98949.22;5045535;28;20098;-68
2024/02/11 06:22:19;;;;;;;39.38;14.35;;;;;;;3.05;63.65;98961.50;5035100;28;20059;-68
2024/02/11 06:24:46;;;;;;;36.03;14.63;;;;;;;2.99;64.28;98951.41;5051316;28;20101;-69
2024/02/11 06:27:12;;;;;;;33.88;15.15;;;;;;;2.80;64.73;98945.28;5023962;28;20036;-70
2024/02/11 06:29:42;;;;;;;40.67;16.23;;;;;;;2.93;64.08;98946.47;5018031;28;20032;-70
2024/02/11 06:32:08;;;;;;;40.50;14.55;;;;;;;2.90;64.08;98947.44;5045188;28;20130;-69
2024/02/11 06:34:36;;;;;;;44.15;14.52;;;;;;;2.55;65.35;98959.97;5051447;28;20383;-68
2024/02/11 06:37:05;;;;;;;42.10;13.80;;;;;;;2.62;64.99;98962.28;5046849;28;20044;-69
2024/02/11 06:39:32;;;;;;;40.75;16.52;;;;;;;3.04;64.18;98958.97;5012235;28;20069;-70
2024/02/11 06:42:05;;;;;;;37.92;15.10;;;;;;;3.02;63.55;98966.75;5033322;28;20040;-72
2024/02/11 06:44:34;;;;;;;35.80;14.32;;;;;;;2.58;65.02;98964.16;5050449;28;20031;-71
2024/02/11 06:46:59;;;;;;;39.88;14.75;;;;;;;2.65;64.97;98968.19;5034798;28;20047;-70
2024/02/11 06:49:25;;;;;;;37.83;15.00;;;;;;;2.80;64.34;98969.34;5022459;28;20035;-71
2024/02/11 06:51:51;;;;;;;40.67;14.60;;;;;;;2.92;64.05;98971.44;5031955;28;20137;-70
2024/02/11 06:54:21;;;;;;;33.53;11.98;;;;;;;2.80;64.58;98989.13;5028138;28;20036;-68
2024/02/11 06:56:47;;;;;;;33.33;12.63;;;;;;;2.83;64.26;98982.13;5045252;28;20097;-67
2024/02/11 06:59:19;;;;;;;37.20;14.38;;;;;;;2.93;64.10;98988.59;5011157;28;20034;-70
2024/02/11 07:01:45;;;;;;;47.10;15.15;;;;;;;3.02;63.73;98987.41;5022679;28;20130;-69
2024/02/11 07:04:13;;;;;;;43.08;15.55;;;;;;;2.96;64.30;99003.16;5046743;28;20040;-69
2024/02/11 07:06:46;;;;;;;39.90;13.68;;;;;;;2.75;64.61;99004.78;5054420;28;20704;-68
2024/02/11 07:09:13;;;;;;;38.08;15.95;;;;;;;2.92;64.67;99001.56;5014584;28;20498;-69
2024/02/11 07:11:40;;;;;;;45.28;15.35;;;;;;;2.94;63.96;98999.78;5029669;28;20048;-70
2024/02/11 07:14:07;;;;;;;41.42;15.88;;;;;;;2.94;64.51;99004.94;5049930;28;20036;-69
2024/02/11 07:16:34;;;;;;;34.00;14.00;;;;;;;2.74;64.62;98993.63;5032078;28;20562;-70
2024/02/11 07:18:59;;;;;;;36.67;14.45;;;;;;;2.62;65.21;99004.38;5056142;28;20078;-68
2024/02/11 07:21:25;;;;;;;33.70;13.15;;;;;;;2.72;64.87;98999.75;5043190;28;20517;-69
2024/02/11 07:23:51;;;;;;;43.95;15.45;;;;;;;2.74;65.10;99000.53;5051784;28;20081;-70
2024/02/11 07:26:19;;;;;;;30.98;14.40;;;;;;;2.80;64.90;99010.63;4999480;28;20043;-74
2024/02/11 07:28:46;;;;;;;36.50;15.00;;;;;;;2.83;64.77;99007.94;5047865;28;20066;-72
2024/02/11 07:31:11;;;;;;;31.48;13.48;;;;;;;2.64;65.03;99000.00;4978126;28;20070;-71
2024/02/11 07:33:37;;;;;;;32.45;13.15;;;;;;;2.67;65.50;99006.84;4999871;28;20069;-71
2024/02/11 07:36:02;;;;;;;43.67;14.45;;;;;;;2.72;65.30;99010.91;5052403;28;20067;-73
2024/02/11 07:38:28;;;;;;;34.67;13.80;;;;;;;2.60;65.63;99019.09;5050069;28;20063;-73
2024/02/11 07:40:53;;;;;;;35.28;13.25;;;;;;;2.68;65.69;99003.34;4999461;28;20047;-72
2024/02/11 07:43:21;;;;;;;31.80;12.45;;;;;;;2.84;64.91;99003.59;4980763;28;20135;-73
2024/02/11 07:45:47;;;;;;;32.80;14.43;;;;;;;2.87;65.05;99003.50;5005076;28;22198;-75
2024/02/11 07:48:13;;;;;;;37.22;14.20;;;;;;;2.93;64.67;99004.06;5044948;28;20036;-71
2024/02/11 07:50:38;;;;;;;39.90;15.23;;;;;;;2.98;64.54;99003.94;5031356;28;20434;-71
2024/02/11 07:53:05;;;;;;;35.53;13.50;;;;;;;2.99;64.37;99010.75;5012722;28;20096;-72
2024/02/11 07:55:34;;;;;;;38.25;14.75;;;;;;;3.08;63.92;99010.41;4997305;28;20088;-72
2024/02/11 07:58:01;;;;;;;32.60;14.07;;;;;;;3.01;64.21;99006.38;5023135;28;20066;-67
2024/02/11 08:00:31;;;;;;;35.47;14.88;;;;;;;2.88;64.46;99005.16;5023064;28;20035;-66
2024/02/11 08:02:59;;;;;;;39.08;14.63;;;;;;;2.83;65.08;98996.78;5037697;28;20118;-65
2024/02/11 08:05:25;;;;;;;36.40;14.30;;;;;;;2.71;65.11;98993.75;5012824;28;20032;-66
2024/02/11 08:07:55;;;;;;;39.63;14.75;;;;;;;2.91;64.75;99000.75;5013619;28;20043;-68
2024/02/11 08:10:22;;;;;;;37.00;12.80;;;;;;;2.57;65.90;99006.31;5037705;28;20517;-65
2024/02/11 08:12:48;;;;;;;37.15;13.05;;;;;;;2.75;65.49;98999.63;5046088;28;20616;-67
2024/02/11 08:15:14;;;;;;;36.72;14.05;;;;;;;2.94;64.59;99010.09;5032396;28;20111;-66
2024/02/11 08:17:42;;;;;;;32.45;15.07;;;;;;;2.72;65.13;98994.59;5039168;28;20625;-65
2024/02/11 08:20:09;;;;;;;32.30;12.90;;;;;;;3.04;64.44;98998.50;5050711;28;20847;-67
2024/02/11 08:22:38;;;;;;;37.55;14.70;;;;;;;2.89;65.15;99005.13;5014025;28;20036;-65
2024/02/11 08:25:07;;;;;;;33.95;14.32;;;;;;;2.96;64.77;99008.31;5023886;28;20145;-66
2024/02/11 08:27:40;;;;;;;36.40;13.90;;;;;;;2.84;65.16;99003.59;5033238;28;20564;-65
2024/02/11 08:30:11;;;;;;;40.17;15.73;;;;;;;3.07;64.58;99001.00;5038103;28;20138;-67
2024/02/11 08:32:38;;;;;;;36.00;13.85;;;;;;;2.82;64.94;99002.81;5024908;28;20304;-68
2024/02/11 08:35:08;;;;;;;35.60;13.57;;;;;;;2.90;65.23;99011.94;5030487;28;20309;-65
2024/02/11 08:37:35;;;;;;;37.92;12.73;;;;;;;2.96;64.94;99013.47;5044958;28;20043;-64
2024/02/11 08:40:01;;;;;;;37.42;14.77;;;;;;;3.01;64.75;99015.88;5043940;28;20036;-68
2024/02/11 08:42:27;;;;;;;40.83;14.13;;;;;;;2.82;65.27;99015.72;5022029;28;21114;-65
2024/02/11 08:44:56;;;;;;;35.55;13.35;;;;;;;2.87;65.12;99013.81;5041232;28;20025;-67
2024/02/11 08:47:22;;;;;;;41.88;14.00;;;;;;;3.12;64.42;99014.56;4995320;28;20059;-64
2024/02/11 08:49:48;;;;;;;33.08;13.38;;;;;;;3.05;64.79;99013.13;5027477;28;20041;-65
2024/02/11 08:52:14;;;;;;;38.85;14.43;;;;;;;3.19;64.52;99010.81;5009161;28;20043;-65
2024/02/11 08:54:40;;;;;;;43.08;15.32;;;;;;;3.17;64.58;99002.28;5026354;28;20040;-65
2024/02/11 08:57:07;;;;;;;44.35;14.43;;;;;;;3.36;63.76;99009.38;5048565;28;20039;-65
2024/02/11 08:59:33;;;;;;;34.10;13.50;;;;;;;3.25;64.01;99014.06;5044781;28;20036;-65
2024/02/11 09:01:59;;;;;;;34.50;14.13;;;;;;;3.38;64.12;99018.72;5027386;28;20055;-65
2024/02/11 09:04:27;;;;;;;46.35;14.75;;;;;;;3.25;64.25;99024.38;5012914;28;20036;-69
2024/02/11 09:06:57;;;;;;;47.08;14.13;;;;;;;3.14;64.17;99033.41;5013260;28;20043;-69
2024/02/11 09:09:27;;;;;;;41.15;15.43;;;;;;;3.15;64.35;99031.66;5051953;28;20032;-66
2024/02/11 09:12:02;;;;;;;39.53;15.18;;;;;;;2.98;64.89;99042.66;5019138;28;20102;-66
2024/02/11 09:14:29;;;;;;;42.08;15.52;;;;;;;2.98;65.19;99045.22;5049147;28;20119;-66
2024/02/11 09:17:02;;;;;;;41.33;14.80;;;;;;;2.96;65.52;99047.03;5045685;28;20040;-68
2024/02/11 09:19:31;;;;;;;34.13;15.02;;;;;;;3.15;64.84;99045.41;5048245;28;20050;-68
2024/02/11 09:22:05;;;;;;;42.05;16.95;;;;;;;3.43;64.08;99049.53;5050387;28;20051;-65
2024/02/11 09:24:33;;;;;;;44.50;16.95;;;;;;;3.22;64.63;99060.66;5002776;28;20040;-66
2024/02/11 09:26:59;;;;;;;41.60;15.52;;;;;;;3.34;64.38;99067.97;5024758;28;20533;-66
2024/02/11 09:29:26;;;;;;;47.42;17.90;;;;;;;3.19;65.07;99059.88;5034001;28;20047;-68
2024/02/11 09:31:52;;;;;;;41.40;16.05;;;;;;;3.34;64.95;99067.97;5044928;28;20098;-66
2024/02/11 09:34:17;;;;;;;38.17;16.23;;;;;;;3.12;65.09;99068.75;5053817;28;20073;-65
2024/02/11 09:36:44;;;;;;;37.75;14.23;;;;;;;3.41;64.36;99077.16;5011991;28;20052;-68
2024/02/11 09:39:13;;;;;;;42.88;15.30;;;;;;;3.26;64.75;99075.13;5031508;28;20061;-65
2024/02/11 09:41:39;;;;;;;36.00;14.82;;;;;;;3.17;65.14;99071.16;5041028;28;20579;-67
2024/02/11 09:44:05;;;;;;;37.28;16.02;;;;;;;3.08;65.48;99077.50;5033727;28;20035;-67
2024/02/11 09:46:35;;;;;;;39.85;14.82;;;;;;;3.26;65.10;99073.38;5041924;28;20048;-68
2024/02/11 09:49:20;;;;;;;31.13;13.30;;;;;;;3.13;65.21;99070.44;4996166;28;20035;-67
2024/02/11 09:51:46;;;;;;;38.80;13.43;;;;;;;3.18;65.14;99078.03;5026114;28;20043;-67
2024/02/11 09:54:13;;;;;;;34.05;12.32;;;;;;;3.25;64.73;99076.03;5050073;28;20097;-67
2024/02/11 09:56:39;;;;;;;33.95;12.93;;;;;;;3.36;64.45;99077.34;5034582;28;20445;-67
2024/02/11 09:59:05;;;;;;;33.10;13.18;;;;;;;3.29;64.74;99075.03;5029005;28;20042;-66
2024/02/11 10:01:33;;;;;;;38.38;13.82;;;;;;;3.37;64.77;99075.59;5028591;28;20039;-66
2024/02/11 10:04:04;;;;;;;34.90;13.68;;;;;;;3.00;65.69;99084.69;5044776;28;20036;-66
2024/02/11 10:06:37;;;;;;;36.65;12.80;;;;;;;3.09;65.26;99075.75;5046983;28;20647;-67
2024/02/11 10:09:06;;;;;;;30.40;12.00;;;;;;;3.12;65.17;99081.66;5048313;28;20055;-66
2024/02/11 10:11:34;;;;;;;39.60;11.85;;;;;;;3.29;64.44;99082.78;5045064;28;20070;-67
2024/02/11 10:14:00;;;;;;;29.08;11.00;;;;;;;3.25;64.75;99081.19;5026580;28;20038;-66
2024/02/11 10:16:29;;;;;;;35.10;12.48;;;;;;;3.30;64.61;99081.91;5030975;28;20043;-66
2024/02/11 10:18:58;;;;;;;34.13;14.00;;;;;;;3.21;64.58;99087.41;5013817;28;20032;-66
2024/02/11 10:21:25;;;;;;;40.17;13.93;;;;;;;3.16;65.10;99085.81;5046664;28;20822;-66
2024/02/11 10:23:51;;;;;;;36.10;12.38;;;;;;;3.22;64.88;99094.22;5035860;28;20206;-67
2024/02/11 10:26:17;;;;;;;29.70;11.80;;;;;;;3.07;65.16;99091.34;5042259;28;21673;-67
2024/02/11 10:28:42;;;;;;;34.67;12.55;;;;;;;2.81;66.39;99094.03;5048203;28;20043;-67
2024/02/11 10:31:08;;;;;;;30.73;12.80;;;;;;;2.80;66.14;99089.75;5020250;28;20044;-66
2024/02/11 10:33:34;;;;;;;33.17;12.48;;;;;;;3.05;65.65;99092.28;5040204;28;21628;-66
2024/02/11 10:36:04;;;;;;;31.35;12.15;;;;;;;2.95;65.84;99094.34;5037956;28;20044;-67
2024/02/11 10:38:30;;;;;;;34.03;12.25;;;;;;;3.16;65.74;99098.72;5020896;28;20141;-66
2024/02/11 10:40:56;;;;;;;35.28;12.60;;;;;;;3.27;65.17;99095.75;5034565;28;20044;-66
2024/02/11 10:43:24;;;;;;;36.67;12.43;;;;;;;3.17;65.35;99100.41;5034980;28;20788;-66
2024/02/11 10:45:51;;;;;;;33.88;13.50;;;;;;;3.29;65.37;99095.69;5015936;28;20040;-66
2024/02/11 10:48:21;;;;;;;34.15;13.45;;;;;;;3.12;65.39;99104.91;5037435;28;20040;-66
2024/02/11 10:51:22;;;;;;;28.25;10.90;;;;;;;3.26;65.13;99103.53;5043918;28;20051;-67
2024/02/11 10:53:56;;;;;;;39.25;12.25;;;;;;;3.34;64.95;99101.56;5043144;28;20127;-68
2024/02/11 10:56:23;;;;;;;31.40;12.77;;;;;;;3.44;64.86;99102.84;5049841;28;20039;-67
2024/02/11 10:59:06;;;;;;;40.25;13.05;;;;;;;3.35;65.13;99098.06;5024772;28;20115;-66
2024/02/11 11:01:36;;;;;;;43.33;14.15;;;;;;;3.37;65.05;99101.41;5049111;28;20044;-66
2024/02/11 11:04:02;;;;;;;41.03;12.55;;;;;;;3.29;65.42;99100.88;5044864;28;20563;-66
2024/02/11 11:06:31;;;;;;;28.00;11.60;;;;;;;3.29;65.47;99100.88;5027238;28;20304;-67
2024/02/11 11:08:59;;;;;;;27.98;12.18;;;;;;;3.54;64.74;99095.63;5014424;28;20096;-66
2024/02/11 11:11:25;;;;;;;35.50;13.05;;;;;;;3.44;65.18;99097.69;5048801;28;20837;-66
2024/02/11 11:13:56;;;;;;;38.72;11.75;;;;;;;3.60;64.65;99092.75;5027977;28;20627;-66
2024/02/11 11:16:30;;;;;;;30.73;11.17;;;;;;;3.40;64.95;99093.53;5033416;28;20134;-66
2024/02/11 11:19:02;;;;;;;32.15;11.88;;;;;;;3.31;65.52;99096.47;5039744;28;20043;-67
2024/02/11 11:21:28;;;;;;;36.75;12.30;;;;;;;3.76;64.16;99088.69;5050782;28;20059;-67
2024/02/11 11:23:59;;;;;;;43.47;13.25;;;;;;;3.55;64.59;99090.38;5042050;28;20031;-68
2024/02/11 11:26:27;;;;;;;27.85;10.60;;;;;;;3.68;64.39;99084.72;5051050;28;20043;-65
2024/02/11 11:29:03;;;;;;;39.28;12.82;;;;;;;3.45;64.68;99078.72;5044445;28;20549;-67